Time;durP1;ratioP1;P1;durP2;ratioP2;P2;SDS_P1;SDS_P2;PMS_P1;PMS_P2;Temp;Humidity;BMP_temperature;BMP_pressure;BME280_temperature;BME280_humidity;BME280_pressure;Samples;Min_cycle;Max_cycle;Signal;HPM_P1;HPM_P2
2022/10/18 00:00:43;;;;;;;;;;;;;;;;;;5076775;28;1509;-77
2022/10/18 00:03:10;;;;;;;;;;;;;;;;;;5093709;28;1063;-77
2022/10/18 00:05:36;;;;;;;;;;;;;;;;;;5092235;28;1988;-75
2022/10/18 00:08:03;;;;;;;;;;;;;;;;;;5093498;28;1299;-77
2022/10/18 00:10:29;;;;;;;;;;;;;;;;;;5081718;28;1486;-76
2022/10/18 00:12:55;;;;;;;;;;;;;;;;;;5072226;28;810;-76
2022/10/18 00:15:21;;;;;;;;;;;;;;;;;;5071614;28;1114;-77
2022/10/18 00:17:48;;;;;;;;;;;;;;;;;;5074830;28;1506;-76
2022/10/18 00:20:15;;;;;;;;;;;;;;;;;;5093067;28;1047;-77
2022/10/18 00:22:42;;;;;;;;;;;;;;;;;;5093053;28;998;-77
2022/10/18 00:25:08;;;;;;;;;;;;;;;;;;5092912;28;1043;-76
2022/10/18 00:27:35;;;;;;;;;;;;;;;;;;5091779;28;1902;-76
2022/10/18 00:30:01;;;;;;;;;;;;;;;;;;5091741;28;1306;-76
2022/10/18 00:32:28;;;;;;;;;;;;;;;;;;5091345;28;1131;-77
2022/10/18 00:34:54;;;;;;;;;;;;;;;;;;5093260;28;1056;-77
2022/10/18 00:37:21;;;;;;;;;;;;;;;;;;5091351;28;1286;-77
2022/10/18 00:39:48;;;;;;;;;;;;;;;;;;5093084;28;1055;-77
2022/10/18 00:42:15;;;;;;;;;;;;;;;;;;5092664;28;893;-77
2022/10/18 00:44:59;;;;;;;;;;;;;;;;;;5091587;28;1262;-77
2022/10/18 00:47:26;;;;;;;;;;;;;;;;;;5090655;28;1913;-77
2022/10/18 00:49:53;;;;;;;;;;;;;;;;;;5092634;28;1031;-76
2022/10/18 00:52:19;;;;;;;;;;;;;;;;;;5092434;28;742;-76
2022/10/18 00:54:47;;;;;;;;;;;;;;;;;;5092730;28;806;-76
2022/10/18 00:57:14;;;;;;;;;;;;;;;;;;5092390;28;1372;-77
2022/10/18 00:59:40;;;;;;;;;;;;;;;;;;5091170;28;1217;-77
2022/10/18 01:02:06;;;;;;;;;;;;;;;;;;5092146;28;1231;-77
2022/10/18 01:04:32;;;;;;;;;;;;;;;;;;5092442;28;1051;-77
2022/10/18 01:07:00;;;;;;;;;;;;;;;;;;5092289;28;1910;-75
2022/10/18 01:09:28;;;;;;;;;;;;;;;;;;5092288;28;963;-75
2022/10/18 01:12:03;;;;;;;;;;;;;;;;;;5092114;28;1063;-77
2022/10/18 01:14:34;;;;;;;;;;;;;;;;;;5092366;28;1110;-77
2022/10/18 01:17:01;;;;;;;;;;;;;;;;;;5091964;28;1513;-76
2022/10/18 01:19:44;;;;;;;;;;;;;;;;;;5092195;28;1466;-75
2022/10/18 01:22:11;;;;;;;;;;;;;;;;;;5091394;28;1035;-76
2022/10/18 01:24:45;;;;;;;;;;;;;;;;;;5091152;28;1075;-76
2022/10/18 01:27:23;;;;;;;;;;;;;;;;;;5090789;28;1918;-77
2022/10/18 01:29:53;;;;;;;;;;;;;;;;;;5090829;28;1028;-77
2022/10/18 01:32:21;;;;;;;;;;;;;;;;;;5091712;28;1106;-76
2022/10/18 01:34:47;;;;;;;;;;;;;;;;;;5092225;28;1090;-77
2022/10/18 01:37:14;;;;;;;;;;;;;;;;;;5091088;28;1340;-75
2022/10/18 01:39:40;;;;;;;;;;;;;;;;;;5090929;28;1122;-77
2022/10/18 01:42:07;;;;;;;;;;;;;;;;;;5090716;28;1115;-76
2022/10/18 01:44:34;;;;;;;;;;;;;;;;;;5091822;28;1064;-77
2022/10/18 01:47:00;;;;;;;;;;;;;;;;;;5089917;28;1969;-77
2022/10/18 01:49:27;;;;;;;;;;;;;;;;;;5091887;28;1067;-77
2022/10/18 01:51:54;;;;;;;;;;;;;;;;;;5063732;28;1573;-77
2022/10/18 01:54:21;;;;;;;;;;;;;;;;;;5050354;28;1408;-77
2022/10/18 01:56:49;;;;;;;;;;;;;;;;;;5050155;28;1391;-76
2022/10/18 01:59:20;;;;;;;;;;;;;;;;;;5049976;28;1333;-77
2022/10/18 02:01:49;;;;;;;;;;;;;;;;;;5051574;28;922;-76
2022/10/18 02:04:19;;;;;;;;;;;;;;;;;;5051317;28;857;-76
2022/10/18 02:06:46;;;;;;;;;;;;;;;;;;5050018;28;2003;-77
2022/10/18 02:09:13;;;;;;;;;;;;;;;;;;5050272;28;1136;-77
2022/10/18 02:11:39;;;;;;;;;;;;;;;;;;5051297;28;1056;-76
2022/10/18 02:14:07;;;;;;;;;;;;;;;;;;5051468;28;783;-76
2022/10/18 02:16:34;;;;;;;;;;;;;;;;;;5051850;28;1443;-76
2022/10/18 02:19:02;;;;;;;;;;;;;;;;;;5071800;28;984;-77
2022/10/18 02:21:28;;;;;;;;;;;;;;;;;;5069679;28;1292;-77
2022/10/18 02:23:56;;;;;;;;;;;;;;;;;;5070198;28;1134;-75
2022/10/18 02:26:22;;;;;;;;;;;;;;;;;;5071008;28;1930;-77
2022/10/18 02:28:48;;;;;;;;;;;;;;;;;;5070308;28;1352;-76
2022/10/18 02:31:15;;;;;;;;;;;;;;;;;;5071316;28;1056;-76
2022/10/18 02:33:43;;;;;;;;;;;;;;;;;;5071003;28;1054;-75
2022/10/18 02:36:10;;;;;;;;;;;;;;;;;;5073888;28;1333;-76
2022/10/18 02:38:36;;;;;;;;;;;;;;;;;;5075442;28;1066;-76
2022/10/18 02:41:04;;;;;;;;;;;;;;;;;;5075030;28;925;-77
2022/10/18 02:43:30;;;;;;;;;;;;;;;;;;5074734;28;1063;-77
2022/10/18 02:45:56;;;;;;;;;;;;;;;;;;5073487;28;1298;-75
2022/10/18 02:48:22;;;;;;;;;;;;;;;;;;5074719;28;1910;-77
2022/10/18 02:50:49;;;;;;;;;;;;;;;;;;5073476;28;1180;-77
2022/10/18 02:53:15;;;;;;;;;;;;;;;;;;5074212;28;877;-77
2022/10/18 02:55:41;;;;;;;;;;;;;;;;;;5073558;28;1126;-77
2022/10/18 02:58:09;;;;;;;;;;;;;;;;;;5095970;22;3562;-77
2022/10/18 03:00:35;;;;;;;;;;;;;;;;;;5094587;28;1089;-78
2022/10/18 03:03:01;;;;;;;;;;;;;;;;;;5075871;28;1477;-78
2022/10/18 03:05:27;;;;;;;;;;;;;;;;;;5094452;28;1043;-77
2022/10/18 03:07:56;;;;;;;;;;;;;;;;;;5094265;28;1906;-78
2022/10/18 03:10:22;;;;;;;;;;;;;;;;;;5076361;28;1459;-77
2022/10/18 03:12:48;;;;;;;;;;;;;;;;;;5076087;28;1332;-77
2022/10/18 03:15:16;;;;;;;;;;;;;;;;;;5094399;28;766;-78
2022/10/18 03:17:42;;;;;;;;;;;;;;;;;;5048832;28;1452;-77
2022/10/18 03:20:09;;;;;;;;;;;;;;;;;;5053952;28;783;-78
2022/10/18 03:22:35;;;;;;;;;;;;;;;;;;5053561;28;1004;-78
2022/10/18 03:25:01;;;;;;;;;;;;;;;;;;5053857;28;1126;-77
2022/10/18 03:27:27;;;;;;;;;;;;;;;;;;5053693;28;1922;-78
2022/10/18 03:29:53;;;;;;;;;;;;;;;;;;5053924;28;1048;-76
2022/10/18 03:32:21;;;;;;;;;;;;;;;;;;5053048;28;1115;-78
2022/10/18 03:34:47;;;;;;;;;;;;;;;;;;5053081;28;920;-76
2022/10/18 03:37:13;;;;;;;;;;;;;;;;;;5035242;28;1320;-77
2022/10/18 03:39:39;;;;;;;;;;;;;;;;;;5053015;28;676;-77
2022/10/18 03:42:06;;;;;;;;;;;;;;;;;;5055542;28;1578;-77
2022/10/18 03:44:32;;;;;;;;;;;;;;;;;;5078575;28;1407;-77
2022/10/18 03:46:58;;;;;;;;;;;;;;;;;;5086133;28;1975;-78
2022/10/18 03:49:25;;;;;;;;;;;;;;;;;;5072693;28;1343;-77
2022/10/18 03:51:52;;;;;;;;;;;;;;;;;;5056265;28;1471;-77
2022/10/18 03:54:18;;;;;;;;;;;;;;;;;;5073774;28;1475;-77
2022/10/18 03:56:44;;;;;;;;;;;;;;;;;;5076992;28;1404;-76
2022/10/18 03:59:10;;;;;;;;;;;;;;;;;;5080415;28;1384;-76
2022/10/18 04:01:36;;;;;;;;;;;;;;;;;;5078916;28;1453;-76
2022/10/18 04:04:03;;;;;;;;;;;;;;;;;;5081880;28;1154;-77
2022/10/18 04:06:30;;;;;;;;;;;;;;;;;;5074480;28;869;-77
2022/10/18 04:08:56;;;;;;;;;;;;;;;;;;5092722;28;1922;-76
2022/10/18 04:11:22;;;;;;;;;;;;;;;;;;5065193;28;1424;-76
2022/10/18 04:13:49;;;;;;;;;;;;;;;;;;5058463;28;1567;-77
2022/10/18 04:16:15;;;;;;;;;;;;;;;;;;5072738;28;1250;-76
2022/10/18 04:18:41;;;;;;;;;;;;;;;;;;5051999;28;1324;-76
2022/10/18 04:21:07;;;;;;;;;;;;;;;;;;5056991;28;1515;-74
2022/10/18 04:23:35;;;;;;;;;;;;;;;;;;5081905;28;1205;-76
2022/10/18 04:26:01;;;;;;;;;;;;;;;;;;5055093;28;1567;-76
2022/10/18 04:28:27;;;;;;;;;;;;;;;;;;5061675;28;1921;-76
2022/10/18 04:30:53;;;;;;;;;;;;;;;;;;5061359;28;1351;-76
2022/10/18 04:33:20;;;;;;;;;;;;;;;;;;5061621;28;1172;-76
2022/10/18 04:35:46;;;;;;;;;;;;;;;;;;5042118;28;1290;-75
2022/10/18 04:38:13;;;;;;;;;;;;;;;;;;5051276;28;1545;-76
2022/10/18 04:40:41;;;;;;;;;;;;;;;;;;5051330;28;1186;-76
2022/10/18 04:43:07;;;;;;;;;;;;;;;;;;5051032;28;1347;-76
2022/10/18 04:45:33;;;;;;;;;;;;;;;;;;5050959;28;1212;-76
2022/10/18 04:47:59;;;;;;;;;;;;;;;;;;5050965;28;1906;-76
2022/10/18 04:50:26;;;;;;;;;;;;;;;;;;5051148;28;1391;-76
2022/10/18 04:52:52;;;;;;;;;;;;;;;;;;5050684;28;1288;-77
2022/10/18 04:55:18;;;;;;;;;;;;;;;;;;5050464;28;1239;-76
2022/10/18 04:57:46;;;;;;;;;;;;;;;;;;5040968;28;1427;-76
2022/10/18 05:00:13;;;;;;;;;;;;;;;;;;5049856;28;1319;-77
2022/10/18 05:02:39;;;;;;;;;;;;;;;;;;5040862;28;1229;-76
2022/10/18 05:05:05;;;;;;;;;;;;;;;;;;5041427;28;1224;-75
2022/10/18 05:07:31;;;;;;;;;;;;;;;;;;5061052;28;1906;-76
2022/10/18 05:09:58;;;;;;;;;;;;;;;;;;5061057;28;1259;-76
2022/10/18 05:12:24;;;;;;;;;;;;;;;;;;5068611;28;1313;-76
2022/10/18 05:14:51;;;;;;;;;;;;;;;;;;5071185;28;1047;-77
2022/10/18 05:17:17;;;;;;;;;;;;;;;;;;5070347;28;1468;-76
2022/10/18 05:19:44;;;;;;;;;;;;;;;;;;5053096;28;989;-77
2022/10/18 05:22:10;;;;;;;;;;;;;;;;;;5070942;28;992;-76
2022/10/18 05:24:36;;;;;;;;;;;;;;;;;;5052882;28;1345;-76
2022/10/18 05:27:02;;;;;;;;;;;;;;;;;;5071341;28;1055;-76
2022/10/18 05:29:28;;;;;;;;;;;;;;;;;;5070964;28;1980;-76
2022/10/18 05:31:56;;;;;;;;;;;;;;;;;;5070950;28;866;-76
2022/10/18 05:34:23;;;;;;;;;;;;;;;;;;5048273;28;1231;-75
2022/10/18 05:36:49;;;;;;;;;;;;;;;;;;5043586;28;1248;-75
2022/10/18 05:39:16;;;;;;;;;;;;;;;;;;5061574;28;1487;-76
2022/10/18 05:41:42;;;;;;;;;;;;;;;;;;5041424;28;1381;-76
2022/10/18 05:44:09;;;;;;;;;;;;;;;;;;5060485;28;1326;-75
2022/10/18 05:46:35;;;;;;;;;;;;;;;;;;5062112;28;1285;-76
2022/10/18 05:49:02;;;;;;;;;;;;;;;;;;5060958;28;1922;-75
2022/10/18 05:51:28;;;;;;;;;;;;;;;;;;5049912;28;1367;-75
2022/10/18 05:53:55;;;;;;;;;;;;;;;;;;5032528;28;1266;-74
2022/10/18 05:56:21;;;;;;;;;;;;;;;;;;5032451;28;1284;-75
2022/10/18 05:58:49;;;;;;;;;;;;;;;;;;5033399;28;1428;-76
2022/10/18 06:01:15;;;;;;;;;;;;;;;;;;5034554;28;1547;-75
2022/10/18 06:03:41;;;;;;;;;;;;;;;;;;5050533;28;1092;-75
2022/10/18 06:06:10;;;;;;;;;;;;;;;;;;5033032;28;981;-76
2022/10/18 06:08:36;;;;;;;;;;;;;;;;;;5032478;28;1987;-75
2022/10/18 06:11:05;;;;;;;;;;;;;;;;;;5053115;28;949;-76
2022/10/18 06:13:32;;;;;;;;;;;;;;;;;;5054079;28;1106;-76
2022/10/18 06:15:58;;;;;;;;;;;;;;;;;;5037188;28;1476;-76
2022/10/18 06:18:24;;;;;;;;;;;;;;;;;;5054741;28;1289;-75
2022/10/18 06:20:55;;;;;;;;;;;;;;;;;;5054336;28;1444;-76
2022/10/18 06:23:23;;;;;;;;;;;;;;;;;;5036194;28;1426;-75
2022/10/18 06:25:49;;;;;;;;;;;;;;;;;;5054381;28;1071;-75
2022/10/18 06:28:15;;;;;;;;;;;;;;;;;;5054455;28;1983;-75
2022/10/18 06:30:41;;;;;;;;;;;;;;;;;;5036711;28;1321;-75
2022/10/18 06:33:10;;;;;;;;;;;;;;;;;;5054182;28;1024;-75
2022/10/18 06:35:36;;;;;;;;;;;;;;;;;;5053879;28;1228;-75
2022/10/18 06:38:03;;;;;;;;;;;;;;;;;;5053825;28;1400;-75
2022/10/18 06:40:36;;;;;;;;;;;;;;;;;;5053992;28;1188;-75
2022/10/18 06:43:05;;;;;;;;;;;;;;;;;;5053909;28;1059;-75
2022/10/18 06:45:31;;;;;;;;;;;;;;;;;;5053655;28;1433;-75
2022/10/18 06:47:57;;;;;;;;;;;;;;;;;;5053732;28;1983;-75
2022/10/18 06:50:23;;;;;;;;;;;;;;;;;;5053891;28;1097;-76
2022/10/18 06:52:51;;;;;;;;;;;;;;;;;;5053582;28;837;-76
2022/10/18 06:55:17;;;;;;;;;;;;;;;;;;5060593;28;1166;-76
2022/10/18 06:57:45;;;;;;;;;;;;;;;;;;5053669;28;1401;-75
2022/10/18 07:00:12;;;;;;;;;;;;;;;;;;5054014;28;948;-76
2022/10/18 07:02:40;;;;;;;;;;;;;;;;;;5053818;28;877;-75
2022/10/18 07:05:06;;;;;;;;;;;;;;;;;;5053691;28;1012;-75
2022/10/18 07:07:32;;;;;;;;;;;;;;;;;;5035945;28;1427;-75
2022/10/18 07:09:59;;;;;;;;;;;;;;;;;;5053613;28;1914;-76
2022/10/18 07:12:25;;;;;;;;;;;;;;;;;;5053432;28;1099;-75
2022/10/18 07:14:53;;;;;;;;;;;;;;;;;;5053400;28;1060;-76
2022/10/18 07:17:20;;;;;;;;;;;;;;;;;;5053331;28;1313;-76
2022/10/18 07:19:46;;;;;;;;;;;;;;;;;;5053319;28;786;-76
2022/10/18 07:22:12;;;;;;;;;;;;;;;;;;5034183;28;1128;-76
2022/10/18 07:24:38;;;;;;;;;;;;;;;;;;5053493;28;1440;-76
2022/10/18 07:27:04;;;;;;;;;;;;;;;;;;5053511;28;1056;-76
2022/10/18 07:29:31;;;;;;;;;;;;;;;;;;5053044;28;1971;-76
2022/10/18 07:31:58;;;;;;;;;;;;;;;;;;5069568;28;1468;-76
2022/10/18 07:34:24;;;;;;;;;;;;;;;;;;5064945;28;1055;-76
2022/10/18 07:36:51;;;;;;;;;;;;;;;;;;5051105;28;1171;-76
2022/10/18 07:39:17;;;;;;;;;;;;;;;;;;5055286;28;1292;-76
2022/10/18 07:41:43;;;;;;;;;;;;;;;;;;5052566;28;1095;-76
2022/10/18 07:44:09;;;;;;;;;;;;;;;;;;5053092;28;810;-76
2022/10/18 07:46:36;;;;;;;;;;;;;;;;;;5052926;28;858;-76
2022/10/18 07:49:03;;;;;;;;;;;;;;;;;;5052824;28;1906;-76
2022/10/18 07:51:31;;;;;;;;;;;;;;;;;;5052475;28;770;-76
2022/10/18 07:53:57;;;;;;;;;;;;;;;;;;5052728;28;1138;-77
2022/10/18 07:56:23;;;;;;;;;;;;;;;;;;5052854;28;1540;-77
2022/10/18 07:58:51;;;;;;;;;;;;;;;;;;5052429;28;1345;-77
2022/10/18 08:01:17;;;;;;;;;;;;;;;;;;5052025;28;1515;-75
2022/10/18 08:03:43;;;;;;;;;;;;;;;;;;5034793;28;1209;-76
2022/10/18 08:06:11;;;;;;;;;;;;;;;;;;5052637;28;1047;-77
2022/10/18 08:08:38;;;;;;;;;;;;;;;;;;5052296;28;1939;-76
2022/10/18 08:11:05;;;;;;;;;;;;;;;;;;5052554;28;1067;-76
2022/10/18 08:13:31;;;;;;;;;;;;;;;;;;5052101;28;1134;-76
2022/10/18 08:15:59;;;;;;;;;;;;;;;;;;5034745;28;1136;-76
2022/10/18 08:18:25;;;;;;;;;;;;;;;;;;5034372;28;1335;-76
2022/10/18 08:20:51;;;;;;;;;;;;;;;;;;5052180;28;1079;-79
2022/10/18 08:23:19;;;;;;;;;;;;;;;;;;5052089;28;842;-76
2022/10/18 08:25:45;;;;;;;;;;;;;;;;;;5052115;28;1476;-76
2022/10/18 08:28:12;;;;;;;;;;;;;;;;;;5052422;28;1326;-77
2022/10/18 08:30:38;;;;;;;;;;;;;;;;;;5052278;28;1973;-76
2022/10/18 08:33:05;;;;;;;;;;;;;;;;;;5051677;28;758;-77
2022/10/18 08:35:31;;;;;;;;;;;;;;;;;;5034173;28;1142;-77
2022/10/18 08:37:58;;;;;;;;;;;;;;;;;;5052021;28;1317;-76
2022/10/18 08:40:26;;;;;;;;;;;;;;;;;;5051928;28;1040;-77
2022/10/18 08:43:00;;;;;;;;;;;;;;;;;;5051666;28;1059;-76
2022/10/18 08:45:26;;;;;;;;;;;;;;;;;;5051773;28;928;-77
2022/10/18 08:47:55;;;;;;;;;;;;;;;;;;5051792;28;1310;-77
2022/10/18 08:50:22;;;;;;;;;;;;;;;;;;5051799;28;1961;-78
2022/10/18 08:52:49;;;;;;;;;;;;;;;;;;5051676;28;846;-76
2022/10/18 08:55:17;;;;;;;;;;;;;;;;;;5049670;28;1421;-77
2022/10/18 08:57:44;;;;;;;;;;;;;;;;;;5033683;28;1403;-77
2022/10/18 09:00:14;;;;;;;;;;;;;;;;;;5052978;28;893;-75
2022/10/18 09:02:41;;;;;;;;;;;;;;;;;;5051558;28;1079;-76
2022/10/18 09:05:11;;;;;;;;;;;;;;;;;;5033531;28;1182;-77
2022/10/18 09:07:46;;;;;;;;;;;;;;;;;;5051487;28;1415;-76
2022/10/18 09:10:15;;;;;;;;;;;;;;;;;;5051559;28;1914;-77
2022/10/18 09:12:47;;;;;;;;;;;;;;;;;;5051479;28;933;-77
2022/10/18 09:15:15;;;;;;;;;;;;;;;;;;5051555;28;754;-77
2022/10/18 09:17:44;;;;;;;;;;;;;;;;;;5051114;28;1389;-78
2022/10/18 09:20:14;;;;;;;;;;;;;;;;;;5051450;28;953;-77
2022/10/18 09:22:43;;;;;;;;;;;;;;;;;;5050725;28;1484;-77
2022/10/18 09:25:11;;;;;;;;;;;;;;;;;;5033439;28;1242;-77
2022/10/18 09:27:39;;;;;;;;;;;;;;;;;;5051074;28;1330;-77
2022/10/18 09:30:08;;;;;;;;;;;;;;;;;;5051401;28;1906;-77
2022/10/18 09:32:38;;;;;;;;;;;;;;;;;;5051791;28;805;-77
2022/10/18 09:35:05;;;;;;;;;;;;;;;;;;5051058;28;1060;-77
2022/10/18 09:37:32;;;;;;;;;;;;;;;;;;5050994;28;1347;-77
2022/10/18 09:40:00;;;;;;;;;;;;;;;;;;5051221;28;1076;-77
2022/10/18 09:42:27;;;;;;;;;;;;;;;;;;5050919;28;1118;-78
2022/10/18 09:44:54;;;;;;;;;;;;;;;;;;5051408;28;1127;-77
2022/10/18 09:47:23;;;;;;;;;;;;;;;;;;5058248;28;1393;-77
2022/10/18 09:49:51;;;;;;;;;;;;;;;;;;5049103;28;1922;-77
2022/10/18 09:52:18;;;;;;;;;;;;;;;;;;5046673;28;1173;-77
2022/10/18 09:54:45;;;;;;;;;;;;;;;;;;5064128;28;1283;-77
2022/10/18 09:57:12;;;;;;;;;;;;;;;;;;5063792;28;1354;-76
2022/10/18 09:59:40;;;;;;;;;;;;;;;;;;5057507;28;1425;-78
2022/10/18 10:02:06;;;;;;;;;;;;;;;;;;5066452;28;1492;-78
2022/10/18 10:04:34;;;;;;;;;;;;;;;;;;5074804;28;936;-78
2022/10/18 10:07:01;;;;;;;;;;;;;;;;;;5074831;28;1118;-77
2022/10/18 10:09:28;;;;;;;;;;;;;;;;;;5074740;28;1972;-75
2022/10/18 10:11:55;;;;;;;;;;;;;;;;;;5074615;28;877;-77
2022/10/18 10:14:24;;;;;;;;;;;;;;;;;;5074633;28;992;-76
2022/10/18 10:16:51;;;;;;;;;;;;;;;;;;5074424;28;1051;-76
2022/10/18 10:19:18;;;;;;;;;;;;;;;;;;5074409;28;1396;-77
2022/10/18 10:21:45;;;;;;;;;;;;;;;;;;5073217;28;1274;-77
2022/10/18 10:24:16;;;;;;;;;;;;;;;;;;5074386;28;987;-77
2022/10/18 10:26:42;;;;;;;;;;;;;;;;;;5073839;28;997;-77
2022/10/18 10:29:23;;;;;;;;;;;;;;;;;;5073874;28;1996;-77
2022/10/18 10:31:50;;;;;;;;;;;;;;;;;;5072669;28;1018;-77
2022/10/18 10:34:19;;;;;;;;;;;;;;;;;;5073893;28;1311;-77
2022/10/18 10:36:47;;;;;;;;;;;;;;;;;;5073670;28;963;-76
2022/10/18 10:39:17;;;;;;;;;;;;;;;;;;5074014;28;1302;-76
2022/10/18 10:41:43;;;;;;;;;;;;;;;;;;5067455;28;1148;-76
2022/10/18 10:44:13;;;;;;;;;;;;;;;;;;5057715;28;1235;-77
2022/10/18 10:46:40;;;;;;;;;;;;;;;;;;5053530;28;1063;-75
2022/10/18 10:49:06;;;;;;;;;;;;;;;;;;5053563;28;1981;-77
2022/10/18 10:51:33;;;;;;;;;;;;;;;;;;5058139;28;1397;-77
2022/10/18 10:54:01;;;;;;;;;;;;;;;;;;5073667;28;937;-77
2022/10/18 10:56:28;;;;;;;;;;;;;;;;;;5073436;28;889;-77
2022/10/18 10:58:54;;;;;;;;;;;;;;;;;;5073409;28;1325;-78
2022/10/18 11:01:28;;;;;;;;;;;;;;;;;;5055562;28;1071;-76
2022/10/18 11:03:56;;;;;;;;;;;;;;;;;;5074346;28;1118;-77
2022/10/18 11:06:39;;;;;;;;;;;;;;;;;;5073770;28;1004;-77
2022/10/18 11:09:09;;;;;;;;;;;;;;;;;;5073756;28;1321;-77
2022/10/18 11:11:36;;;;;;;;;;;;;;;;;;5073305;28;948;-77
2022/10/18 11:14:03;;;;;;;;;;;;;;;;;;5073621;28;884;-78
2022/10/18 11:16:32;;;;;;;;;;;;;;;;;;5073320;28;948;-78
2022/10/18 11:18:58;;;;;;;;;;;;;;;;;;5073626;28;1400;-78
2022/10/18 11:21:25;;;;;;;;;;;;;;;;;;5072391;28;1507;-77
2022/10/18 11:23:51;;;;;;;;;;;;;;;;;;5073284;28;581;-77
2022/10/18 11:26:31;;;;;;;;;;;;;;;;;;5073856;28;1079;-77
2022/10/18 11:29:01;;;;;;;;;;;;;;;;;;5052926;28;1401;-78
2022/10/18 11:31:29;;;;;;;;;;;;;;;;;;5052969;28;1899;-78
2022/10/18 11:33:59;;;;;;;;;;;;;;;;;;5053480;28;1119;-78
2022/10/18 11:36:27;;;;;;;;;;;;;;;;;;5053260;28;1044;-78
2022/10/18 11:38:54;;;;;;;;;;;;;;;;;;5053414;28;1341;-77
2022/10/18 11:41:24;;;;;;;;;;;;;;;;;;5053000;28;949;-77
2022/10/18 11:43:52;;;;;;;;;;;;;;;;;;5053407;28;795;-78
2022/10/18 11:46:22;;;;;;;;;;;;;;;;;;5053330;28;1052;-78
2022/10/18 11:48:52;;;;;;;;;;;;;;;;;;5053091;28;1372;-78
2022/10/18 11:51:20;;;;;;;;;;;;;;;;;;5064576;28;1922;-78
2022/10/18 11:53:49;;;;;;;;;;;;;;;;;;5072922;28;754;-78
2022/10/18 11:56:16;;;;;;;;;;;;;;;;;;5055088;28;1356;-78
2022/10/18 11:58:46;;;;;;;;;;;;;;;;;;5071650;28;1421;-78
2022/10/18 12:01:16;;;;;;;;;;;;;;;;;;5041865;28;1437;-78
2022/10/18 12:03:49;;;;;;;;;;;;;;;;;;5056432;28;1468;-78
2022/10/18 12:06:17;;;;;;;;;;;;;;;;;;5074072;28;964;-77
2022/10/18 12:08:44;;;;;;;;;;;;;;;;;;5072779;28;1384;-76
2022/10/18 12:11:12;;;;;;;;;;;;;;;;;;5056809;28;1958;-78
2022/10/18 12:13:40;;;;;;;;;;;;;;;;;;5072928;28;896;-77
2022/10/18 12:16:07;;;;;;;;;;;;;;;;;;5072038;28;1528;-77
2022/10/18 12:18:34;;;;;;;;;;;;;;;;;;5072701;28;1310;-78
2022/10/18 12:21:00;;;;;;;;;;;;;;;;;;5073059;28;1051;-78
2022/10/18 12:23:30;;;;;;;;;;;;;;;;;;5054289;28;1159;-77
2022/10/18 12:25:59;;;;;;;;;;;;;;;;;;5072732;28;922;-77
2022/10/18 12:28:30;;;;;;;;;;;;;;;;;;5073021;28;1336;-78
2022/10/18 12:30:57;;;;;;;;;;;;;;;;;;5055486;28;1967;-79
2022/10/18 12:33:25;;;;;;;;;;;;;;;;;;5054973;28;1176;-78
2022/10/18 12:35:56;;;;;;;;;;;;;;;;;;5057563;28;1495;-78
2022/10/18 12:38:23;;;;;;;;;;;;;;;;;;5052527;28;1348;-79
2022/10/18 12:40:50;;;;;;;;;;;;;;;;;;5035012;28;1208;-78
2022/10/18 12:43:17;;;;;;;;;;;;;;;;;;5034506;28;942;-78
2022/10/18 12:45:48;;;;;;;;;;;;;;;;;;5034365;28;1533;-78
2022/10/18 12:48:16;;;;;;;;;;;;;;;;;;5034488;28;1399;-78
2022/10/18 12:50:43;;;;;;;;;;;;;;;;;;5051704;28;1910;-77
2022/10/18 12:53:21;;;;;;;;;;;;;;;;;;5052481;28;1119;-77
2022/10/18 12:55:48;;;;;;;;;;;;;;;;;;5052368;28;767;-77
2022/10/18 12:58:22;;;;;;;;;;;;;;;;;;5052065;28;1350;-78
2022/10/18 13:00:52;;;;;;;;;;;;;;;;;;5052246;28;1429;-78
2022/10/18 13:03:36;;;;;;;;;;;;;;;;;;5051758;28;1095;-78
2022/10/18 13:06:03;;;;;;;;;;;;;;;;;;5051696;28;1240;-78
2022/10/18 13:08:49;;;;;;;;;;;;;;;;;;5051643;28;1429;-78
2022/10/18 13:11:34;;;;;;;;;;;;;;;;;;5034418;28;1910;-76
2022/10/18 13:14:22;;;;;;;;;;;;;;;;;;5052789;28;1099;-77
2022/10/18 13:16:49;;;;;;;;;;;;;;;;;;5047707;28;1464;-78
2022/10/18 13:19:18;;;;;;;;;;;;;;;;;;5033510;28;1411;-78
2022/10/18 13:21:46;;;;;;;;;;;;;;;;;;5061428;28;1453;-77
2022/10/18 13:24:16;;;;;;;;;;;;;;;;;;5071318;28;941;-78
2022/10/18 13:26:44;;;;;;;;;;;;;;;;;;5071400;28;856;-78
2022/10/18 13:29:17;;;;;;;;;;;;;;;;;;5071648;28;1313;-78
2022/10/18 13:31:45;;;;;;;;;;;;;;;;;;5071276;28;1973;-77
2022/10/18 13:34:22;;;;;;;;;;;;;;;;;;5071241;28;848;-77
2022/10/18 13:36:54;;;;;;;;;;;;;;;;;;5071466;28;1114;-77
2022/10/18 13:39:20;;;;;;;;;;;;;;;;;;5071378;28;1336;-77
2022/10/18 13:42:01;;;;;;;;;;;;;;;;;;5044877;28;1292;-77
2022/10/18 13:44:30;;;;;;;;;;;;;;;;;;5041070;28;1445;-77
2022/10/18 13:47:17;;;;;;;;;;;;;;;;;;5052800;28;1361;-77
2022/10/18 13:50:08;;;;;;;;;;;;;;;;;;5070948;28;916;-77
2022/10/18 13:52:38;;;;;;;;;;;;;;;;;;5050289;28;1381;-77
2022/10/18 13:55:08;;;;;;;;;;;;;;;;;;5071105;28;1055;-77
2022/10/18 13:57:41;;;;;;;;;;;;;;;;;;5070636;28;1335;-77
2022/10/18 14:00:18;;;;;;;;;;;;;;;;;;5052965;28;1601;-77
2022/10/18 14:02:53;;;;;;;;;;;;;;;;;;5052532;28;818;-76
2022/10/18 14:05:22;;;;;;;;;;;;;;;;;;5071274;28;858;-77
2022/10/18 14:07:48;;;;;;;;;;;;;;;;;;5070669;28;1334;-77
2022/10/18 14:10:17;;;;;;;;;;;;;;;;;;5047659;28;1922;-77
2022/10/18 14:12:44;;;;;;;;;;;;;;;;;;5070482;28;940;-77
2022/10/18 14:15:14;;;;;;;;;;;;;;;;;;5070778;28;1048;-77
2022/10/18 14:17:44;;;;;;;;;;;;;;;;;;5071092;28;1344;-77
2022/10/18 14:20:15;;;;;;;;;;;;;;;;;;5067528;28;1124;-76
2022/10/18 14:22:42;;;;;;;;;;;;;;;;;;5061585;28;1207;-77
2022/10/18 14:25:18;;;;;;;;;;;;;;;;;;5062185;28;1264;-77
2022/10/18 14:27:45;;;;;;;;;;;;;;;;;;5050480;28;1318;-76
2022/10/18 14:30:13;;;;;;;;;;;;;;;;;;5050645;28;1923;-77
2022/10/18 14:32:43;;;;;;;;;;;;;;;;;;5070842;28;1160;-77
2022/10/18 14:35:15;;;;;;;;;;;;;;;;;;5064355;28;1319;-77
2022/10/18 14:37:41;;;;;;;;;;;;;;;;;;5060942;28;1389;-77
2022/10/18 14:40:24;;;;;;;;;;;;;;;;;;5061262;28;1457;-77
2022/10/18 14:42:50;;;;;;;;;;;;;;;;;;5073667;28;1071;-77
2022/10/18 14:45:17;;;;;;;;;;;;;;;;;;5055977;28;1144;-77
2022/10/18 14:47:45;;;;;;;;;;;;;;;;;;5074300;28;1402;-76
2022/10/18 14:50:19;;;;;;;;;;;;;;;;;;5075336;28;1060;-76
2022/10/18 14:52:45;;;;;;;;;;;;;;;;;;5074490;28;909;-75
2022/10/18 14:55:12;;;;;;;;;;;;;;;;;;5056982;28;1180;-76
2022/10/18 14:57:38;;;;;;;;;;;;;;;;;;5061066;28;1396;-76
2022/10/18 15:00:05;;;;;;;;;;;;;;;;;;5064746;28;1240;-76
2022/10/18 15:02:33;;;;;;;;;;;;;;;;;;5062258;28;1461;-76
2022/10/18 15:05:06;;;;;;;;;;;;;;;;;;5062233;28;1236;-76
2022/10/18 15:07:32;;;;;;;;;;;;;;;;;;5061910;28;1384;-74
2022/10/18 15:09:59;;;;;;;;;;;;;;;;;;5062714;28;1243;-74
2022/10/18 15:12:25;;;;;;;;;;;;;;;;;;5055177;28;1971;-74
2022/10/18 15:14:51;;;;;;;;;;;;;;;;;;5063362;28;1328;-74
2022/10/18 15:17:20;;;;;;;;;;;;;;;;;;5049575;28;1416;-74
2022/10/18 15:19:56;;;;;;;;;;;;;;;;;;5060707;28;1356;-74
2022/10/18 15:22:25;;;;;;;;;;;;;;;;;;5071105;28;849;-74
2022/10/18 15:25:10;;;;;;;;;;;;;;;;;;5071252;28;788;-74
2022/10/18 15:27:38;;;;;;;;;;;;;;;;;;5070984;28;1314;-74
2022/10/18 15:30:07;;;;;;;;;;;;;;;;;;5071237;28;1063;-74
2022/10/18 15:32:33;;;;;;;;;;;;;;;;;;5038492;28;1980;-74
2022/10/18 15:35:06;;;;;;;;;;;;;;;;;;5051282;28;1123;-74
2022/10/18 15:37:36;;;;;;;;;;;;;;;;;;5050991;28;1325;-74
2022/10/18 15:40:18;;;;;;;;;;;;;;;;;;5051498;28;1503;-74
2022/10/18 15:42:45;;;;;;;;;;;;;;;;;;5049967;28;1063;-73
2022/10/18 15:45:31;;;;;;;;;;;;;;;;;;5051576;28;1134;-74
2022/10/18 15:47:58;;;;;;;;;;;;;;;;;;5058526;28;1360;-74
2022/10/18 15:50:35;;;;;;;;;;;;;;;;;;5059356;28;1180;-74
2022/10/18 15:53:06;;;;;;;;;;;;;;;;;;5059522;28;1220;-74
2022/10/18 15:55:46;;;;;;;;;;;;;;;;;;5060035;28;1192;-74
2022/10/18 15:58:13;;;;;;;;;;;;;;;;;;5060719;28;1399;-74
2022/10/18 16:00:39;;;;;;;;;;;;;;;;;;5070885;28;1091;-74
2022/10/18 16:03:07;;;;;;;;;;;;;;;;;;5067472;28;1101;-74
2022/10/18 16:05:33;;;;;;;;;;;;;;;;;;5066250;28;1435;-73
2022/10/18 16:07:59;;;;;;;;;;;;;;;;;;5077963;28;1692;-74
2022/10/18 16:10:27;;;;;;;;;;;;;;;;;;5081062;28;1413;-74
2022/10/18 16:12:53;;;;;;;;;;;;;;;;;;5090294;28;1925;-74
2022/10/18 16:15:19;;;;;;;;;;;;;;;;;;5081620;28;1399;-74
2022/10/18 16:17:46;;;;;;;;;;;;;;;;;;5070652;28;1519;-74
2022/10/18 16:20:12;;;;;;;;;;;;;;;;;;5073105;28;1505;-74
2022/10/18 16:22:39;;;;;;;;;;;;;;;;;;5060119;28;1579;-74
2022/10/18 16:25:05;;;;;;;;;;;;;;;;;;5079543;28;1020;-75
2022/10/18 16:27:32;;;;;;;;;;;;;;;;;;5090173;28;1345;-74
2022/10/18 16:29:59;;;;;;;;;;;;;;;;;;5083716;28;1396;-74
2022/10/18 16:32:25;;;;;;;;;;;;;;;;;;5082251;28;1914;-74
2022/10/18 16:34:51;;;;;;;;;;;;;;;;;;5057829;28;1479;-75
2022/10/18 16:37:17;;;;;;;;;;;;;;;;;;5067480;28;1530;-74
2022/10/18 16:39:44;;;;;;;;;;;;;;;;;;5067207;28;1340;-73
2022/10/18 16:42:10;;;;;;;;;;;;;;;;;;5064527;28;1146;-74
2022/10/18 16:44:37;;;;;;;;;;;;;;;;;;5067211;28;1409;-73
2022/10/18 16:47:03;;;;;;;;;;;;;;;;;;5073245;28;1364;-74
2022/10/18 16:49:30;;;;;;;;;;;;;;;;;;5052120;28;1543;-74
2022/10/18 16:51:56;;;;;;;;;;;;;;;;;;5062934;28;1926;-74
2022/10/18 16:54:22;;;;;;;;;;;;;;;;;;5089830;28;925;-74
2022/10/18 16:56:49;;;;;;;;;;;;;;;;;;5089907;28;924;-74
2022/10/18 16:59:18;;;;;;;;;;;;;;;;;;5074374;28;1444;-74
2022/10/18 17:01:45;;;;;;;;;;;;;;;;;;5074024;28;1463;-74
2022/10/18 17:04:12;;;;;;;;;;;;;;;;;;5070564;28;1129;-74
2022/10/18 17:06:38;;;;;;;;;;;;;;;;;;5051655;28;1416;-74
2022/10/18 17:09:04;;;;;;;;;;;;;;;;;;5065520;28;1509;-73
2022/10/18 17:11:30;;;;;;;;;;;;;;;;;;5075859;28;1969;-74